createdAt,value
2023-03-02T00:00:57.679Z,935.32
2023-03-02T00:01:57.700Z,935.33
2023-03-02T00:02:57.742Z,935.39
2023-03-02T00:03:57.769Z,935.37
2023-03-02T00:04:57.748Z,935.41
2023-03-02T00:05:57.773Z,935.45
2023-03-02T00:06:57.781Z,935.42
2023-03-02T00:07:57.810Z,935.47
2023-03-02T00:08:57.811Z,935.48
2023-03-02T00:09:57.821Z,935.49
2023-03-02T00:10:57.842Z,935.51
2023-03-02T00:11:57.870Z,935.51
2023-03-02T00:12:57.869Z,935.46
2023-03-02T00:13:57.886Z,935.48
2023-03-02T00:14:57.913Z,935.51
2023-03-02T00:15:57.946Z,935.52
2023-03-02T00:16:57.935Z,935.50
2023-03-02T00:17:57.960Z,935.57
2023-03-02T00:18:57.984Z,935.62
2023-03-02T00:19:57.992Z,935.61
2023-03-02T00:20:58.013Z,935.62
2023-03-02T00:21:58.086Z,935.66
2023-03-02T00:22:58.041Z,935.68
2023-03-02T00:23:58.063Z,935.70
2023-03-02T00:24:58.090Z,935.70
2023-03-02T00:25:58.092Z,935.72
2023-03-02T00:26:58.109Z,935.72
2023-03-02T00:27:58.135Z,935.73
2023-03-02T00:28:58.142Z,935.66
2023-03-02T00:29:58.158Z,935.70
2023-03-02T00:30:58.224Z,935.69
2023-03-02T00:31:58.244Z,935.68
2023-03-02T00:32:58.211Z,935.65
2023-03-02T00:33:58.220Z,935.68
2023-03-02T00:34:58.234Z,935.63
2023-03-02T00:35:58.332Z,935.62
2023-03-02T00:36:58.269Z,935.63
2023-03-02T00:37:58.300Z,935.64
2023-03-02T00:38:58.296Z,935.69
2023-03-02T00:39:58.309Z,935.67
2023-03-02T00:40:58.325Z,935.68
2023-03-02T00:41:58.343Z,935.70
2023-03-02T00:42:58.365Z,935.67
2023-03-02T00:43:58.384Z,935.67
2023-03-02T00:44:58.394Z,935.67
2023-03-02T00:45:58.411Z,935.68
2023-03-02T00:46:58.475Z,935.72
2023-03-02T00:47:58.447Z,935.69
2023-03-02T00:48:58.464Z,935.65
2023-03-02T00:49:58.471Z,935.70
2023-03-02T00:50:58.490Z,935.69
2023-03-02T00:51:58.505Z,935.71
2023-03-02T00:52:58.522Z,935.70
2023-03-02T00:53:58.562Z,935.72
2023-03-02T00:54:58.562Z,935.68
2023-03-02T00:55:58.578Z,935.69
2023-03-02T00:56:58.590Z,935.71
2023-03-02T00:57:58.610Z,935.66
2023-03-02T00:58:58.620Z,935.67
2023-03-02T00:59:58.642Z,935.65
2023-03-02T01:00:58.653Z,935.65
2023-03-02T01:01:58.772Z,935.63
2023-03-02T01:02:58.806Z,935.65
2023-03-02T01:03:58.709Z,935.68
2023-03-02T01:04:58.731Z,935.69
2023-03-02T01:05:58.759Z,935.75
2023-03-02T01:06:58.763Z,935.74
2023-03-02T01:07:58.773Z,935.69
2023-03-02T01:08:58.795Z,935.69
2023-03-02T01:09:58.827Z,935.64
2023-03-02T01:10:58.823Z,935.66
2023-03-02T01:11:58.845Z,935.64
2023-03-02T01:12:58.865Z,935.65
2023-03-02T01:13:58.869Z,935.64
2023-03-02T01:14:58.888Z,935.63
2023-03-02T01:15:58.971Z,935.62
2023-03-02T01:16:58.925Z,935.61
2023-03-02T01:17:58.936Z,935.60
2023-03-02T01:18:58.954Z,935.62
2023-03-02T01:19:58.994Z,935.63
2023-03-02T01:20:58.985Z,935.67
2023-03-02T01:21:59.009Z,935.67
2023-03-02T01:22:59.025Z,935.64
2023-03-02T01:23:59.035Z,935.63
2023-03-02T01:24:59.051Z,935.58
2023-03-02T01:25:59.217Z,935.57
2023-03-02T01:26:59.093Z,935.55
2023-03-02T01:27:59.104Z,935.53
2023-03-02T01:28:59.126Z,935.52
2023-03-02T01:29:59.144Z,935.52
2023-03-02T01:30:59.151Z,935.50
2023-03-02T01:31:59.270Z,935.46
2023-03-02T01:32:59.182Z,935.44
2023-03-02T01:33:59.200Z,935.45
2023-03-02T01:34:59.224Z,935.39
2023-03-02T01:35:59.342Z,935.37
2023-03-02T01:36:59.255Z,935.33
2023-03-02T01:37:59.270Z,935.28
2023-03-02T01:38:59.291Z,935.33
2023-03-02T01:39:59.300Z,935.29
2023-03-02T01:40:59.324Z,935.30
2023-03-02T01:41:59.365Z,935.33
2023-03-02T01:42:59.356Z,935.28
2023-03-02T01:43:59.361Z,935.31
2023-03-02T01:44:59.376Z,935.32
2023-03-02T01:45:59.485Z,935.28
2023-03-02T01:46:59.419Z,935.30
2023-03-02T01:47:59.426Z,935.31
2023-03-02T01:48:59.458Z,935.30
2023-03-02T01:49:59.464Z,935.32
2023-03-02T01:50:59.489Z,935.22
2023-03-02T01:51:59.497Z,935.19
2023-03-02T01:52:59.513Z,935.14
2023-03-02T01:53:59.521Z,935.14
2023-03-02T01:54:59.546Z,935.13
2023-03-02T01:55:59.584Z,935.10
2023-03-02T01:56:59.578Z,935.11
2023-03-02T01:57:59.688Z,935.07
2023-03-02T01:58:59.606Z,935.05
2023-03-02T01:59:59.678Z,935.04
2023-03-02T02:00:59.699Z,935.06
2023-03-02T02:01:59.660Z,934.99
2023-03-02T02:02:59.676Z,935.00
2023-03-02T02:03:59.770Z,935.01
2023-03-02T02:04:59.700Z,934.97
2023-03-02T02:05:59.719Z,934.98
2023-03-02T02:06:59.742Z,934.98
2023-03-02T02:07:59.751Z,934.92
2023-03-02T02:08:59.775Z,934.94
2023-03-02T02:09:59.793Z,934.92
2023-03-02T02:10:59.799Z,934.89
2023-03-02T02:11:59.814Z,934.86
2023-03-02T02:12:59.830Z,934.83
2023-03-02T02:13:59.877Z,934.82
2023-03-02T02:14:59.870Z,934.82
2023-03-02T02:15:59.878Z,934.78
2023-03-02T02:16:59.965Z,934.81
2023-03-02T02:17:59.925Z,934.80
2023-03-02T02:18:59.927Z,934.82
2023-03-02T02:19:59.959Z,934.83
2023-03-02T02:20:59.960Z,934.78
2023-03-02T02:21:59.989Z,934.79
2023-03-02T02:22:59.995Z,934.76
2023-03-02T02:24:00.012Z,934.76
2023-03-02T02:25:00.032Z,934.76
2023-03-02T02:26:00.055Z,934.74
2023-03-02T02:27:00.060Z,934.80
2023-03-02T02:28:00.120Z,934.81
2023-03-02T02:29:00.099Z,934.79
2023-03-02T02:30:00.169Z,934.84
2023-03-02T02:31:00.134Z,934.80
2023-03-02T02:32:00.527Z,934.84
2023-03-02T02:33:00.163Z,934.83
2023-03-02T02:34:00.177Z,934.80
2023-03-02T02:35:00.188Z,934.81
2023-03-02T02:36:00.264Z,934.84
2023-03-02T02:37:00.220Z,934.85
2023-03-02T02:38:00.244Z,934.88
2023-03-02T02:39:00.262Z,934.90
2023-03-02T02:40:00.277Z,934.89
2023-03-02T02:41:00.291Z,934.89
2023-03-02T02:42:00.309Z,934.87
2023-03-02T02:43:00.325Z,934.88
2023-03-02T02:44:00.332Z,934.87
2023-03-02T02:45:00.355Z,934.83
2023-03-02T02:46:00.448Z,934.80
2023-03-02T02:47:00.382Z,934.80
2023-03-02T02:48:00.423Z,934.77
2023-03-02T02:49:00.413Z,934.75
2023-03-02T02:50:00.440Z,934.76
2023-03-02T02:51:00.716Z,934.78
2023-03-02T02:52:00.471Z,934.78
2023-03-02T02:53:00.478Z,934.81
2023-03-02T02:54:00.503Z,934.84
2023-03-02T02:55:00.540Z,934.80
2023-03-02T02:56:00.530Z,934.80
2023-03-02T02:57:00.555Z,934.80
2023-03-02T02:58:00.566Z,934.80
2023-03-02T02:59:00.590Z,934.82
2023-03-02T03:00:00.601Z,934.84
2023-03-02T03:01:00.664Z,934.82
2023-03-02T03:02:00.741Z,934.81
2023-03-02T03:03:00.647Z,934.80
2023-03-02T03:04:00.684Z,934.81
2023-03-02T03:05:00.726Z,934.80
2023-03-02T03:06:00.696Z,934.80
2023-03-02T03:07:00.708Z,934.81
2023-03-02T03:08:00.763Z,934.77
2023-03-02T03:09:00.770Z,934.74
2023-03-02T03:10:00.798Z,934.73
2023-03-02T03:11:00.770Z,934.73
2023-03-02T03:12:00.798Z,934.72
2023-03-02T03:13:00.817Z,934.70
2023-03-02T03:14:00.834Z,934.69
2023-03-02T03:15:00.844Z,934.67
2023-03-02T03:16:00.858Z,934.65
2023-03-02T03:17:00.918Z,934.65
2023-03-02T03:18:00.917Z,934.64
2023-03-02T03:19:00.908Z,934.66
2023-03-02T03:20:00.920Z,934.62
2023-03-02T03:21:00.937Z,934.60
2023-03-02T03:22:00.960Z,934.61
2023-03-02T03:23:00.987Z,934.58
2023-03-02T03:24:00.979Z,934.53
2023-03-02T03:25:00.995Z,934.55
2023-03-02T03:26:01.023Z,934.55
2023-03-02T03:27:01.033Z,934.55
2023-03-02T03:28:01.038Z,934.54
2023-03-02T03:29:01.061Z,934.55
2023-03-02T03:30:01.090Z,934.55
2023-03-02T03:31:01.120Z,934.52
2023-03-02T03:32:01.168Z,934.51
2023-03-02T03:33:01.130Z,934.48
2023-03-02T03:34:01.236Z,934.44
2023-03-02T03:35:01.154Z,934.46
2023-03-02T03:36:01.282Z,934.46
2023-03-02T03:37:01.187Z,934.41
2023-03-02T03:38:01.208Z,934.40
2023-03-02T03:39:01.253Z,934.38
2023-03-02T03:40:01.240Z,934.39
2023-03-02T03:41:01.255Z,934.39
2023-03-02T03:42:01.269Z,934.43
2023-03-02T03:43:01.329Z,934.43
2023-03-02T03:44:01.299Z,934.44
2023-03-02T03:45:01.384Z,934.44
2023-03-02T03:46:01.359Z,934.47
2023-03-02T03:47:01.344Z,934.43
2023-03-02T03:48:01.359Z,934.41
2023-03-02T03:49:01.382Z,934.39
2023-03-02T03:50:01.435Z,934.37
2023-03-02T03:51:01.414Z,934.33
2023-03-02T03:52:01.465Z,934.34
2023-03-02T03:53:03.736Z,934.35
2023-03-02T03:54:01.458Z,934.31
2023-03-02T03:55:01.580Z,934.31
2023-03-02T03:56:01.492Z,934.31
2023-03-02T03:57:01.501Z,934.27
2023-03-02T03:58:01.530Z,934.33
2023-03-02T03:59:01.533Z,934.31
2023-03-02T04:00:01.553Z,934.30
2023-03-02T04:01:01.577Z,934.27
2023-03-02T04:02:01.594Z,934.30
2023-03-02T04:03:01.605Z,934.22
2023-03-02T04:04:01.612Z,934.22
2023-03-02T04:05:01.637Z,934.19
2023-03-02T04:06:01.675Z,934.24
2023-03-02T04:07:01.661Z,934.21
2023-03-02T04:08:01.677Z,934.21
2023-03-02T04:09:01.701Z,934.22
2023-03-02T04:10:01.716Z,934.20
2023-03-02T04:11:01.726Z,934.21
2023-03-02T04:12:01.753Z,934.18
2023-03-02T04:13:01.757Z,934.17
2023-03-02T04:14:01.776Z,934.15
2023-03-02T04:15:01.803Z,934.11
2023-03-02T04:16:01.926Z,934.11
2023-03-02T04:17:01.823Z,934.08
2023-03-02T04:18:01.841Z,934.04
2023-03-02T04:19:01.852Z,934.08
2023-03-02T04:20:01.880Z,934.04
2023-03-02T04:21:01.892Z,934.05
2023-03-02T04:22:01.925Z,934.06
2023-03-02T04:23:01.919Z,934.09
2023-03-02T04:24:01.943Z,934.11
2023-03-02T04:25:01.955Z,934.07
2023-03-02T04:26:01.971Z,934.10
2023-03-02T04:27:01.989Z,934.07
2023-03-02T04:28:02.036Z,934.13
2023-03-02T04:29:02.023Z,934.10
2023-03-02T04:30:02.041Z,934.14
2023-03-02T04:31:02.113Z,934.16
2023-03-02T04:32:02.103Z,934.14
2023-03-02T04:33:02.123Z,934.17
2023-03-02T04:34:02.110Z,934.17
2023-03-02T04:35:02.124Z,934.17
2023-03-02T04:36:02.228Z,934.15
2023-03-02T04:37:02.160Z,934.10
2023-03-02T04:38:02.213Z,934.09
2023-03-02T04:39:02.192Z,934.07
2023-03-02T04:40:02.211Z,934.05
2023-03-02T04:41:02.231Z,934.00
2023-03-02T04:42:02.236Z,934.03
2023-03-02T04:43:02.250Z,934.00
2023-03-02T04:44:02.269Z,933.97
2023-03-02T04:45:02.284Z,934.02
2023-03-02T04:46:02.313Z,934.01
2023-03-02T04:47:02.337Z,933.99
2023-03-02T04:48:02.331Z,934.03
2023-03-02T04:49:02.360Z,934.00
2023-03-02T04:50:02.416Z,933.98
2023-03-02T04:51:02.395Z,933.97
2023-03-02T04:52:02.418Z,933.95
2023-03-02T04:53:02.453Z,933.94
2023-03-02T04:54:02.465Z,933.91
2023-03-02T04:55:02.445Z,933.88
2023-03-02T04:56:02.464Z,933.85
2023-03-02T04:57:02.485Z,933.85
2023-03-02T04:58:02.501Z,933.84
2023-03-02T04:59:02.509Z,933.79
2023-03-02T05:00:02.534Z,933.79
2023-03-02T05:01:02.546Z,933.76
2023-03-02T05:02:02.603Z,933.75
2023-03-02T05:03:02.574Z,933.76
2023-03-02T05:04:03.181Z,933.75
2023-03-02T05:05:02.626Z,933.77
2023-03-02T05:06:02.628Z,933.79
2023-03-02T05:07:02.639Z,933.87
2023-03-02T05:08:02.659Z,933.81
2023-03-02T05:09:02.669Z,933.77
2023-03-02T05:10:02.723Z,933.78
2023-03-02T05:11:02.714Z,933.72
2023-03-02T05:12:02.730Z,933.72
2023-03-02T05:13:02.739Z,933.67
2023-03-02T05:14:02.766Z,933.66
2023-03-02T05:15:02.766Z,933.62
2023-03-02T05:16:02.894Z,933.63
2023-03-02T05:17:02.806Z,933.56
2023-03-02T05:18:02.812Z,933.62
2023-03-02T05:19:02.837Z,933.61
2023-03-02T05:20:02.848Z,933.61
2023-03-02T05:21:02.858Z,933.61
2023-03-02T05:22:02.884Z,933.61
2023-03-02T05:23:02.900Z,933.61
2023-03-02T05:24:02.916Z,933.58
2023-03-02T05:25:02.940Z,933.59
2023-03-02T05:26:02.968Z,933.58
2023-03-02T05:27:02.956Z,933.57
2023-03-02T05:28:02.979Z,933.59
2023-03-02T05:29:03.005Z,933.58
2023-03-02T05:30:03.004Z,933.59
2023-03-02T05:31:03.071Z,933.60
2023-03-02T05:32:03.057Z,933.59
2023-03-02T05:33:03.061Z,933.58
2023-03-02T05:34:03.068Z,933.61
2023-03-02T05:35:03.085Z,933.62
2023-03-02T05:36:03.138Z,933.62
2023-03-02T05:37:03.133Z,933.62
2023-03-02T05:38:03.135Z,933.58
2023-03-02T05:39:03.148Z,933.58
2023-03-02T05:40:03.163Z,933.55
2023-03-02T05:41:03.179Z,933.53
2023-03-02T05:42:03.265Z,933.54
2023-03-02T05:43:03.221Z,933.51
2023-03-02T05:44:03.236Z,933.54
2023-03-02T05:45:03.253Z,933.49
2023-03-02T05:46:03.266Z,933.48
2023-03-02T05:47:03.329Z,933.51
2023-03-02T05:48:03.312Z,933.49
2023-03-02T05:49:03.307Z,933.47
2023-03-02T05:50:03.322Z,933.45
2023-03-02T05:51:03.345Z,933.46
2023-03-02T05:52:03.354Z,933.44
2023-03-02T05:53:03.380Z,933.48
2023-03-02T05:54:03.386Z,933.49
2023-03-02T05:55:03.408Z,933.52
2023-03-02T05:56:03.452Z,933.52
2023-03-02T05:57:03.435Z,933.55
2023-03-02T05:58:03.473Z,933.56
2023-03-02T05:59:03.465Z,933.57
2023-03-02T06:00:03.489Z,933.55
2023-03-02T06:01:03.504Z,933.55
2023-03-02T06:02:03.572Z,933.54
2023-03-02T06:03:03.615Z,933.54
2023-03-02T06:04:03.549Z,933.54
2023-03-02T06:05:03.561Z,933.54
2023-03-02T06:06:03.573Z,933.52
2023-03-02T06:07:03.599Z,933.56
2023-03-02T06:08:03.608Z,933.51
2023-03-02T06:09:03.632Z,933.55
2023-03-02T06:10:03.646Z,933.55
2023-03-02T06:11:03.656Z,933.55
2023-03-02T06:12:03.689Z,933.56
2023-03-02T06:13:03.697Z,933.56
2023-03-02T06:14:03.734Z,933.59
2023-03-02T06:15:03.742Z,933.61
2023-03-02T06:16:03.853Z,933.58
2023-03-02T06:17:03.761Z,933.57
2023-03-02T06:18:03.800Z,933.59
2023-03-02T06:19:03.790Z,933.55
2023-03-02T06:20:03.810Z,933.55
2023-03-02T06:21:03.813Z,933.50
2023-03-02T06:22:03.844Z,933.49
2023-03-02T06:23:03.852Z,933.47
2023-03-02T06:24:03.868Z,933.48
2023-03-02T06:25:03.883Z,933.46
2023-03-02T06:26:03.890Z,933.52
2023-03-02T06:27:03.913Z,933.51
2023-03-02T06:28:03.930Z,933.46
2023-03-02T06:29:03.946Z,933.47
2023-03-02T06:30:03.981Z,933.44
2023-03-02T06:31:03.978Z,933.45
2023-03-02T06:32:04.159Z,933.47
2023-03-02T06:33:04.014Z,933.45
2023-03-02T06:34:04.024Z,933.45
2023-03-02T06:35:04.111Z,933.46
2023-03-02T06:36:04.203Z,933.44
2023-03-02T06:37:04.075Z,933.42
2023-03-02T06:38:04.083Z,933.48
2023-03-02T06:39:04.110Z,933.46
2023-03-02T06:40:04.112Z,933.44
2023-03-02T06:41:04.129Z,933.47
2023-03-02T06:42:04.166Z,933.49
2023-03-02T06:43:04.562Z,933.46
2023-03-02T06:44:04.179Z,933.45
2023-03-02T06:45:04.201Z,933.45
2023-03-02T06:46:04.434Z,933.38
2023-03-02T06:47:04.227Z,933.36
2023-03-02T06:48:04.255Z,933.38
2023-03-02T06:49:04.257Z,933.32
2023-03-02T06:50:04.282Z,933.33
2023-03-02T06:51:04.294Z,933.30
2023-03-02T06:52:04.304Z,933.30
2023-03-02T06:53:04.322Z,933.28
2023-03-02T06:54:04.338Z,933.27
2023-03-02T06:55:04.367Z,933.29
2023-03-02T06:56:04.409Z,933.27
2023-03-02T06:57:04.392Z,933.27
2023-03-02T06:58:04.400Z,933.24
2023-03-02T06:59:04.417Z,933.26
2023-03-02T07:00:04.439Z,933.24
2023-03-02T07:01:04.588Z,933.26
2023-03-02T07:02:04.489Z,933.27
2023-03-02T07:03:04.488Z,933.22
2023-03-02T07:04:04.597Z,933.26
2023-03-02T07:05:04.512Z,933.28
2023-03-02T07:06:04.525Z,933.24
2023-03-02T07:07:04.551Z,933.28
2023-03-02T07:08:04.580Z,933.26
2023-03-02T07:09:04.593Z,933.32
2023-03-02T07:10:04.593Z,933.29
2023-03-02T07:11:04.603Z,933.32
2023-03-02T07:12:04.617Z,933.31
2023-03-02T07:13:04.641Z,933.31
2023-03-02T07:14:04.662Z,933.29
2023-03-02T07:15:04.676Z,933.25
2023-03-02T07:16:04.683Z,933.25
2023-03-02T07:17:04.795Z,933.25
2023-03-02T07:18:04.729Z,933.25
2023-03-02T07:19:04.730Z,933.27
2023-03-02T07:20:04.743Z,933.29
2023-03-02T07:21:04.764Z,933.35
2023-03-02T07:22:04.790Z,933.31
2023-03-02T07:23:04.799Z,933.34
2023-03-02T07:24:04.810Z,933.34
2023-03-02T07:25:04.834Z,933.41
2023-03-02T07:26:04.845Z,933.37
2023-03-02T07:27:04.857Z,933.37
2023-03-02T07:28:04.885Z,933.38
2023-03-02T07:29:04.888Z,933.39
2023-03-02T07:30:04.906Z,933.40
2023-03-02T07:31:05.043Z,933.42
2023-03-02T07:32:04.963Z,933.46
2023-03-02T07:33:04.962Z,933.47
2023-03-02T07:34:05.008Z,933.50
2023-03-02T07:35:04.989Z,933.45
2023-03-02T07:36:05.028Z,933.45
2023-03-02T07:37:05.017Z,933.48
2023-03-02T07:38:05.039Z,933.43
2023-03-02T07:39:05.059Z,933.42
2023-03-02T07:40:05.064Z,933.40
2023-03-02T07:41:05.088Z,933.38
2023-03-02T07:42:05.101Z,933.40
2023-03-02T07:43:05.106Z,933.41
2023-03-02T07:44:05.124Z,933.36
2023-03-02T07:45:05.148Z,933.44
2023-03-02T07:46:05.224Z,933.45
2023-03-02T07:47:05.178Z,933.46
2023-03-02T07:48:05.198Z,933.43
2023-03-02T07:49:05.209Z,933.47
2023-03-02T07:50:05.240Z,933.51
2023-03-02T07:51:05.245Z,933.50
2023-03-02T07:52:05.251Z,933.50
2023-03-02T07:53:05.279Z,933.56
2023-03-02T07:54:05.288Z,933.56
2023-03-02T07:55:05.303Z,933.59
2023-03-02T07:56:05.387Z,933.60
2023-03-02T07:57:05.328Z,933.64
2023-03-02T07:58:05.356Z,933.71
2023-03-02T07:59:05.368Z,933.72
2023-03-02T08:00:05.375Z,933.67
2023-03-02T08:01:05.405Z,933.70
2023-03-02T08:02:05.482Z,933.73
2023-03-02T08:03:05.560Z,933.69
2023-03-02T08:04:05.448Z,933.71
2023-03-02T08:05:05.470Z,933.72
2023-03-02T08:06:05.509Z,933.73
2023-03-02T08:07:05.494Z,933.73
2023-03-02T08:08:05.509Z,933.82
2023-03-02T08:09:05.525Z,933.76
2023-03-02T08:10:05.533Z,933.79
2023-03-02T08:11:05.551Z,933.81
2023-03-02T08:12:05.593Z,933.81
2023-03-02T08:13:05.583Z,933.80
2023-03-02T08:14:05.606Z,933.74
2023-03-02T08:15:05.636Z,933.75
2023-03-02T08:16:05.700Z,933.73
2023-03-02T08:17:05.651Z,933.77
2023-03-02T08:18:05.679Z,933.81
2023-03-02T08:19:05.690Z,933.79
2023-03-02T08:20:05.720Z,933.81
2023-03-02T08:21:05.717Z,933.83
2023-03-02T08:22:05.751Z,933.85
2023-03-02T08:23:05.742Z,933.89
2023-03-02T08:24:05.762Z,933.90
2023-03-02T08:25:05.780Z,933.90
2023-03-02T08:26:05.791Z,933.93
2023-03-02T08:27:05.812Z,933.96
2023-03-02T08:28:05.824Z,933.99
2023-03-02T08:29:05.844Z,933.96
2023-03-02T08:30:05.865Z,933.98
2023-03-02T08:31:05.924Z,933.97
2023-03-02T08:32:06.074Z,933.99
2023-03-02T08:33:07.224Z,933.94
2023-03-02T08:34:05.923Z,933.95
2023-03-02T08:35:05.934Z,933.96
2023-03-02T08:36:06.040Z,933.90
2023-03-02T08:37:05.963Z,933.94
2023-03-02T08:38:06.025Z,933.89
2023-03-02T08:39:05.996Z,933.97
2023-03-02T08:40:06.020Z,933.96
2023-03-02T08:41:06.032Z,933.94
2023-03-02T08:42:06.052Z,933.98
2023-03-02T08:43:08.101Z,933.98
2023-03-02T08:44:06.084Z,934.02
2023-03-02T08:45:06.087Z,934.05
2023-03-02T08:46:06.134Z,934.05
2023-03-02T08:47:06.125Z,934.08
2023-03-02T08:48:06.141Z,934.13
2023-03-02T08:49:06.155Z,934.14
2023-03-02T08:50:06.167Z,934.19
2023-03-02T08:51:06.188Z,934.20
2023-03-02T08:52:06.209Z,934.21
2023-03-02T08:53:06.216Z,934.24
2023-03-02T08:54:06.253Z,934.31
2023-03-02T08:55:06.339Z,934.33
2023-03-02T08:56:06.262Z,934.32
2023-03-02T08:57:06.277Z,934.33
2023-03-02T08:58:06.294Z,934.28
2023-03-02T08:59:06.313Z,934.26
2023-03-02T09:00:06.322Z,934.24
2023-03-02T09:01:06.362Z,934.25
2023-03-02T09:02:06.349Z,934.27
2023-03-02T09:03:06.364Z,934.25
2023-03-02T09:04:06.432Z,934.24
2023-03-02T09:05:06.395Z,934.25
2023-03-02T09:06:06.418Z,934.25
2023-03-02T09:07:06.432Z,934.24
2023-03-02T09:08:06.440Z,934.28
2023-03-02T09:09:06.469Z,934.30
2023-03-02T09:10:06.541Z,934.27
2023-03-02T09:11:06.494Z,934.28
2023-03-02T09:12:06.510Z,934.28
2023-03-02T09:13:08.428Z,934.23
2023-03-02T09:14:06.589Z,934.22
2023-03-02T09:15:06.551Z,934.18
2023-03-02T09:16:06.670Z,934.18
2023-03-02T09:17:06.598Z,934.17
2023-03-02T09:18:06.597Z,934.17
2023-03-02T09:19:06.622Z,934.20
2023-03-02T09:20:06.631Z,934.15
2023-03-02T09:21:06.652Z,934.19
2023-03-02T09:22:06.670Z,934.18
2023-03-02T09:23:06.688Z,934.19
2023-03-02T09:24:06.702Z,934.24
2023-03-02T09:25:06.716Z,934.25
2023-03-02T09:26:06.764Z,934.30
2023-03-02T09:27:06.757Z,934.29
2023-03-02T09:28:06.755Z,934.32
2023-03-02T09:29:06.783Z,934.33
2023-03-02T09:30:06.789Z,934.33
2023-03-02T09:31:06.814Z,934.31
2023-03-02T09:32:07.029Z,934.35
2023-03-02T09:33:06.912Z,934.37
2023-03-02T09:34:06.858Z,934.39
2023-03-02T09:35:06.871Z,934.35
2023-03-02T09:36:06.890Z,934.36
2023-03-02T09:37:06.904Z,934.37
2023-03-02T09:38:06.958Z,934.39
2023-03-02T09:39:06.935Z,934.37
2023-03-02T09:40:06.952Z,934.43
2023-03-02T09:41:06.976Z,934.44
2023-03-02T09:42:07.023Z,934.44
2023-03-02T09:43:07.004Z,934.45
2023-03-02T09:44:07.017Z,934.48
2023-03-02T09:45:07.032Z,934.48
2023-03-02T09:46:07.082Z,934.52
2023-03-02T09:47:07.056Z,934.51
2023-03-02T09:48:07.077Z,934.51
2023-03-02T09:49:07.093Z,934.52
2023-03-02T09:50:07.101Z,934.54
2023-03-02T09:51:07.126Z,934.58
2023-03-02T09:52:07.134Z,934.54
2023-03-02T09:53:07.148Z,934.57
2023-03-02T09:54:07.194Z,934.57
2023-03-02T09:55:07.183Z,934.55
2023-03-02T09:56:07.194Z,934.59
2023-03-02T09:57:07.218Z,934.63
2023-03-02T09:58:07.255Z,934.65
2023-03-02T09:59:07.252Z,934.65
2023-03-02T10:00:18.663Z,934.67
2023-03-02T10:01:07.280Z,934.65
2023-03-02T10:02:07.289Z,934.67
2023-03-02T10:03:16.629Z,934.67
2023-03-02T10:04:07.461Z,934.67
2023-03-02T10:05:07.334Z,934.67
2023-03-02T10:06:07.367Z,934.66
2023-03-02T10:07:07.373Z,934.70
2023-03-02T10:08:07.388Z,934.69
2023-03-02T10:09:07.404Z,934.75
2023-03-02T10:10:07.418Z,934.77
2023-03-02T10:11:07.439Z,934.69
2023-03-02T10:12:07.450Z,934.69
2023-03-02T10:13:07.459Z,934.67
2023-03-02T10:14:07.541Z,934.66
2023-03-02T10:15:07.498Z,934.70
2023-03-02T10:16:07.578Z,934.65
2023-03-02T10:17:07.521Z,934.66
2023-03-02T10:18:07.555Z,934.67
2023-03-02T10:19:07.575Z,934.66
2023-03-02T10:20:07.566Z,934.63
2023-03-02T10:21:07.625Z,934.64
2023-03-02T10:22:07.599Z,934.66
2023-03-02T10:23:07.624Z,934.64
2023-03-02T10:24:07.633Z,934.65
2023-03-02T10:25:07.662Z,934.69
2023-03-02T10:26:07.662Z,934.69
2023-03-02T10:27:07.693Z,934.68
2023-03-02T10:28:07.699Z,934.71
2023-03-02T10:29:07.715Z,934.77
2023-03-02T10:30:07.762Z,934.77
2023-03-02T10:31:07.849Z,934.81
2023-03-02T10:32:07.793Z,934.80
2023-03-02T10:33:07.796Z,934.80
2023-03-02T10:34:07.798Z,934.87
2023-03-02T10:35:08.004Z,934.84
2023-03-02T10:36:07.822Z,934.81
2023-03-02T10:37:07.831Z,934.85
2023-03-02T10:38:07.854Z,934.82
2023-03-02T10:39:07.899Z,934.82
2023-03-02T10:40:07.887Z,934.83
2023-03-02T10:41:07.893Z,934.83
2023-03-02T10:42:08.000Z,934.84
2023-03-02T10:43:07.933Z,934.86
2023-03-02T10:44:07.946Z,934.88
2023-03-02T10:45:07.968Z,934.90
2023-03-02T10:46:08.046Z,934.88
2023-03-02T10:47:07.994Z,934.91
2023-03-02T10:48:08.009Z,934.88
2023-03-02T10:49:08.018Z,934.91
2023-03-02T10:50:08.042Z,934.90
2023-03-02T10:51:08.049Z,934.89
2023-03-02T10:52:08.071Z,934.87
2023-03-02T10:53:08.081Z,934.89
2023-03-02T10:54:08.107Z,934.91
2023-03-02T10:55:08.125Z,934.95
2023-03-02T10:56:08.126Z,934.96
2023-03-02T10:57:08.142Z,934.95
2023-03-02T10:58:08.167Z,934.96
2023-03-02T10:59:08.175Z,934.95
2023-03-02T11:00:08.188Z,934.94
2023-03-02T11:01:08.214Z,934.91
2023-03-02T11:02:08.245Z,934.89
2023-03-02T11:03:08.235Z,934.91
2023-03-02T11:04:08.372Z,934.90
2023-03-02T11:05:08.275Z,934.89
2023-03-02T11:06:08.290Z,934.92
2023-03-02T11:07:08.300Z,934.88
2023-03-02T11:08:08.318Z,934.88
2023-03-02T11:09:08.329Z,934.89
2023-03-02T11:10:08.358Z,934.80
2023-03-02T11:11:08.374Z,934.82
2023-03-02T11:12:08.420Z,934.76
2023-03-02T11:13:08.400Z,934.77
2023-03-02T11:14:08.407Z,934.79
2023-03-02T11:15:08.425Z,934.80
2023-03-02T11:16:08.495Z,934.83
2023-03-02T11:17:08.453Z,934.82
2023-03-02T11:18:08.513Z,934.84
2023-03-02T11:19:08.498Z,934.86
2023-03-02T11:20:08.506Z,934.83
2023-03-02T11:21:08.519Z,934.86
2023-03-02T11:22:08.531Z,934.84
2023-03-02T11:23:08.548Z,934.81
2023-03-02T11:24:10.415Z,934.80
2023-03-02T11:25:08.591Z,934.80
2023-03-02T11:26:08.603Z,934.78
2023-03-02T11:27:08.612Z,934.79
2023-03-02T11:28:08.624Z,934.80
2023-03-02T11:29:08.644Z,934.79
2023-03-02T11:30:08.656Z,934.86
2023-03-02T11:31:08.806Z,934.85
2023-03-02T11:32:08.784Z,934.88
2023-03-02T11:33:08.736Z,934.91
2023-03-02T11:34:17.385Z,934.91
2023-03-02T11:35:08.731Z,934.95
2023-03-02T11:36:08.819Z,934.97
2023-03-02T11:37:08.781Z,934.95
2023-03-02T11:38:08.788Z,934.92
2023-03-02T11:39:08.797Z,934.90
2023-03-02T11:40:08.821Z,934.97
2023-03-02T11:41:08.836Z,934.98
2023-03-02T11:42:08.885Z,934.97
2023-03-02T11:43:08.866Z,934.98
2023-03-02T11:44:08.885Z,935.01
2023-03-02T11:45:08.891Z,935.01
2023-03-02T11:46:21.172Z,935.04
2023-03-02T11:47:09.006Z,935.00
2023-03-02T11:48:08.939Z,934.98
2023-03-02T11:49:08.954Z,935.01
2023-03-02T11:50:08.990Z,934.99
2023-03-02T11:51:08.993Z,934.98
2023-03-02T11:52:09.007Z,935.00
2023-03-02T11:53:09.029Z,935.01
2023-03-02T11:54:09.042Z,935.02
2023-03-02T11:55:09.050Z,935.02
2023-03-02T11:56:09.069Z,935.03
2023-03-02T11:57:09.088Z,935.02
2023-03-02T11:58:09.102Z,935.03
2023-03-02T11:59:09.119Z,935.04
2023-03-02T12:00:09.131Z,935.04
2023-03-02T12:01:09.192Z,935.04
2023-03-02T12:02:09.223Z,935.07
2023-03-02T12:03:09.196Z,935.06
2023-03-02T12:04:09.192Z,935.11
2023-03-02T12:05:09.260Z,935.11
2023-03-02T12:06:09.310Z,935.08
2023-03-02T12:07:09.235Z,935.08
2023-03-02T12:08:09.265Z,935.07
2023-03-02T12:09:09.303Z,935.06
2023-03-02T12:10:09.282Z,935.05
2023-03-02T12:11:09.306Z,935.03
2023-03-02T12:12:09.314Z,934.99
2023-03-02T12:13:09.331Z,934.99
2023-03-02T12:14:09.346Z,934.99
2023-03-02T12:15:09.363Z,934.98
2023-03-02T12:16:09.390Z,935.00
2023-03-02T12:17:09.397Z,934.98
2023-03-02T12:18:09.423Z,934.97
2023-03-02T12:19:09.426Z,934.96
2023-03-02T12:20:09.454Z,934.96
2023-03-02T12:21:09.465Z,934.97
2023-03-02T12:22:09.503Z,934.97
2023-03-02T12:23:09.494Z,934.97
2023-03-02T12:24:09.503Z,934.97
2023-03-02T12:25:09.529Z,935.00
2023-03-02T12:26:09.554Z,934.93
2023-03-02T12:27:09.550Z,934.93
2023-03-02T12:28:09.567Z,934.92
2023-03-02T12:29:09.631Z,934.92